Time;durP1;ratioP1;P1;durP2;ratioP2;P2;SDS_P1;SDS_P2;PMS_P1;PMS_P2;Temp;Humidity;BMP_temperature;BMP_pressure;BME280_temperature;BME280_humidity;BME280_pressure;Samples;Min_cycle;Max_cycle;Signal;HPM_P1;HPM_P2
2023/04/30 00:00:50;;;;;;;7.28;4.20;;;10.30;99.90;;;;;;5069010;28;20449;-60
2023/04/30 00:03:16;;;;;;;9.05;4.78;;;10.30;99.90;;;;;;5061992;28;20028;-60
2023/04/30 00:05:41;;;;;;;10.40;5.47;;;10.20;99.90;;;;;;5059393;28;20044;-63
2023/04/30 00:08:07;;;;;;;14.20;6.25;;;10.20;99.90;;;;;;5060948;28;20032;-60
2023/04/30 00:10:33;;;;;;;11.27;6.75;;;10.10;99.90;;;;;;5059572;28;20041;-61
2023/04/30 00:12:58;;;;;;;13.80;7.15;;;10.10;99.90;;;;;;5057770;28;20131;-61
2023/04/30 00:15:24;;;;;;;11.80;7.18;;;10.10;99.90;;;;;;5060769;28;20033;-60
2023/04/30 00:17:49;;;;;;;9.80;7.00;;;10.00;99.90;;;;;;5064772;28;20158;-61
2023/04/30 00:20:15;;;;;;;13.98;7.13;;;10.00;99.90;;;;;;5053970;28;20087;-62
2023/04/30 00:22:40;;;;;;;10.30;6.82;;;10.00;99.90;;;;;;5067219;28;20073;-62
2023/04/30 00:25:06;;;;;;;9.02;6.28;;;9.90;99.90;;;;;;5054373;28;20033;-60
2023/04/30 00:27:32;;;;;;;13.15;6.88;;;9.90;99.90;;;;;;5062884;28;20037;-61
2023/04/30 00:29:57;;;;;;;11.70;6.38;;;9.80;99.90;;;;;;5067842;28;21234;-61
2023/04/30 00:32:23;;;;;;;8.15;5.22;;;9.70;99.90;;;;;;5066985;28;20057;-61
2023/04/30 00:34:49;;;;;;;9.95;5.40;;;9.70;99.90;;;;;;5070223;28;20483;-64
2023/04/30 00:37:14;;;;;;;11.73;4.97;;;9.60;99.90;;;;;;5080699;28;20452;-61
2023/04/30 00:39:40;;;;;;;8.73;4.80;;;9.50;99.90;;;;;;5066374;28;20128;-62
2023/04/30 00:42:05;;;;;;;7.43;4.32;;;9.40;99.90;;;;;;5068372;28;20033;-60
2023/04/30 00:44:31;;;;;;;10.23;4.93;;;9.40;99.90;;;;;;5061020;28;20032;-62
2023/04/30 00:46:56;;;;;;;10.10;5.25;;;9.30;99.90;;;;;;5063103;28;20512;-64
2023/04/30 00:49:22;;;;;;;9.15;5.30;;;9.20;99.90;;;;;;5080374;28;20040;-61
2023/04/30 00:51:49;;;;;;;10.93;5.38;;;9.20;99.90;;;;;;5079111;28;20079;-65
2023/04/30 00:54:15;;;;;;;12.10;5.57;;;9.20;99.90;;;;;;5056803;28;20036;-60
2023/04/30 00:56:41;;;;;;;8.52;5.03;;;9.10;99.90;;;;;;5072432;28;20309;-61
2023/04/30 00:59:08;;;;;;;12.75;5.72;;;9.10;99.90;;;;;;5067836;28;20398;-61
2023/04/30 01:01:33;;;;;;;10.00;5.30;;;9.10;99.90;;;;;;5068850;28;20066;-60
2023/04/30 01:04:00;;;;;;;9.57;4.90;;;9.10;99.90;;;;;;5065283;28;20573;-61
2023/04/30 01:06:26;;;;;;;8.50;4.65;;;9.00;99.90;;;;;;5062754;28;20398;-60
2023/04/30 01:08:52;;;;;;;13.38;5.10;;;9.00;99.90;;;;;;5064578;28;20651;-60
2023/04/30 01:11:46;;;;;;;11.88;4.85;;;9.00;99.90;;;;;;5063906;28;20040;-64
2023/04/30 01:14:23;;;;;;;11.25;4.60;;;8.90;99.90;;;;;;5065191;28;20398;-60
2023/04/30 01:17:10;;;;;;;9.57;4.68;;;8.90;99.90;;;;;;5063890;28;20376;-61
2023/04/30 01:19:42;;;;;;;9.68;5.20;;;8.90;99.90;;;;;;5066353;28;20044;-60
2023/04/30 01:22:35;;;;;;;11.32;5.70;;;8.80;99.90;;;;;;5066312;28;20082;-60
2023/04/30 01:25:25;;;;;;;10.02;5.25;;;8.80;99.90;;;;;;5055747;28;20064;-65
2023/04/30 01:28:02;;;;;;;11.30;5.97;;;8.70;99.90;;;;;;5062113;28;20414;-61
2023/04/30 01:30:30;;;;;;;10.98;6.47;;;8.70;99.90;;;;;;5064394;28;20052;-63
2023/04/30 01:32:56;;;;;;;17.42;7.57;;;8.60;99.90;;;;;;5065639;28;20095;-60
2023/04/30 01:35:38;;;;;;;14.95;7.97;;;8.60;99.90;;;;;;5063562;28;20036;-61
2023/04/30 01:38:38;;;;;;;13.55;9.50;;;8.50;99.90;;;;;;5061000;28;20029;-62
2023/04/30 01:41:17;;;;;;;15.05;10.13;;;8.50;99.90;;;;;;5067144;28;20040;-60
2023/04/30 01:44:09;;;;;;;14.35;10.13;;;8.50;99.90;;;;;;5071704;28;20426;-63
2023/04/30 01:46:35;;;;;;;13.13;10.53;;;8.40;99.90;;;;;;5068579;28;20503;-65
2023/04/30 01:49:29;;;;;;;18.13;12.20;;;8.40;99.90;;;;;;5074911;28;20047;-61
2023/04/30 01:52:06;;;;;;;21.80;13.23;;;8.30;99.90;;;;;;5060806;28;20071;-60
2023/04/30 01:54:47;;;;;;;18.33;12.43;;;8.30;99.90;;;;;;5063791;28;20052;-60
2023/04/30 01:57:40;;;;;;;21.23;11.95;;;8.30;99.90;;;;;;5050787;28;20037;-63
2023/04/30 02:00:10;;;;;;;15.73;10.98;;;8.30;99.90;;;;;;5065608;28;20076;-60
2023/04/30 02:02:36;;;;;;;16.80;11.55;;;8.30;99.90;;;;;;5060862;28;20033;-60
2023/04/30 02:05:02;;;;;;;19.35;12.10;;;8.20;99.90;;;;;;5070715;28;20029;-62
2023/04/30 02:07:37;;;;;;;14.98;9.85;;;8.20;99.90;;;;;;5062441;28;20154;-61
2023/04/30 02:10:03;;;;;;;12.98;8.25;;;8.20;99.90;;;;;;5064600;28;20121;-60
2023/04/30 02:12:29;;;;;;;13.10;8.60;;;8.10;99.90;;;;;;5061983;28;20447;-60
2023/04/30 02:14:55;;;;;;;16.75;10.55;;;8.10;99.90;;;;;;5075805;28;20119;-61
2023/04/30 02:17:20;;;;;;;16.92;11.10;;;8.00;99.90;;;;;;5070008;28;20093;-60
2023/04/30 02:19:46;;;;;;;16.08;11.05;;;8.00;99.90;;;;;;5039738;28;20048;-63
2023/04/30 02:22:11;;;;;;;15.80;11.25;;;8.00;99.90;;;;;;5069813;28;20555;-60
2023/04/30 02:24:37;;;;;;;18.02;10.55;;;8.00;99.90;;;;;;5062756;28;20033;-60
2023/04/30 02:27:03;;;;;;;15.65;9.95;;;7.90;99.90;;;;;;5049484;28;20044;-61
2023/04/30 02:29:28;;;;;;;15.05;8.63;;;7.90;99.90;;;;;;5063314;28;20044;-63
2023/04/30 02:31:57;;;;;;;15.80;9.10;;;7.90;99.90;;;;;;5070787;28;20036;-60
2023/04/30 02:34:23;;;;;;;14.18;9.40;;;7.80;99.90;;;;;;5068393;28;20040;-62
2023/04/30 02:36:48;;;;;;;12.65;8.60;;;7.80;99.90;;;;;;5062980;28;20397;-63
2023/04/30 02:39:14;;;;;;;12.35;7.60;;;7.70;99.90;;;;;;5067325;28;20048;-61
2023/04/30 02:41:39;;;;;;;9.57;5.65;;;7.70;99.90;;;;;;5072654;28;20044;-61
2023/04/30 02:44:05;;;;;;;9.63;5.53;;;7.70;99.90;;;;;;5051833;28;20037;-61
2023/04/30 02:46:30;;;;;;;7.85;5.43;;;7.60;99.90;;;;;;5082696;28;20490;-63
2023/04/30 02:48:56;;;;;;;12.82;7.05;;;7.60;99.90;;;;;;5064498;28;20418;-61
2023/04/30 02:51:22;;;;;;;14.82;7.53;;;7.50;99.90;;;;;;5068941;28;20395;-61
2023/04/30 02:53:47;;;;;;;12.13;7.95;;;7.50;99.90;;;;;;5066652;28;20052;-61
2023/04/30 02:56:13;;;;;;;12.88;7.63;;;7.50;99.90;;;;;;5081341;28;20030;-64
2023/04/30 02:58:38;;;;;;;12.45;7.07;;;7.50;99.90;;;;;;5063103;28;20073;-61
2023/04/30 03:01:04;;;;;;;11.60;7.10;;;7.50;99.90;;;;;;5069091;28;20072;-61
2023/04/30 03:03:30;;;;;;;15.57;6.82;;;7.50;99.90;;;;;;5064213;28;20083;-61
2023/04/30 03:05:58;;;;;;;12.55;6.20;;;7.50;99.90;;;;;;5063724;28;20111;-62
2023/04/30 03:08:24;;;;;;;9.75;6.07;;;7.50;99.90;;;;;;5047401;28;20055;-62
2023/04/30 03:10:50;;;;;;;9.75;5.85;;;7.40;99.90;;;;;;5065570;28;20552;-62
2023/04/30 03:13:15;;;;;;;9.73;5.30;;;7.40;99.90;;;;;;5054916;28;20041;-65
2023/04/30 03:15:41;;;;;;;8.75;4.72;;;7.40;99.90;;;;;;5076729;28;20514;-61
2023/04/30 03:18:06;;;;;;;10.02;5.03;;;7.30;99.90;;;;;;5059919;28;20410;-61
2023/04/30 03:20:32;;;;;;;8.23;4.85;;;7.20;99.90;;;;;;5061243;28;20184;-62
2023/04/30 03:22:57;;;;;;;6.65;5.05;;;7.20;99.90;;;;;;5066575;28;20032;-61
2023/04/30 03:25:23;;;;;;;10.13;5.07;;;7.10;99.90;;;;;;5066096;28;20313;-63
2023/04/30 03:27:49;;;;;;;7.75;5.03;;;7.10;99.90;;;;;;5062938;28;20048;-61
2023/04/30 03:30:14;;;;;;;9.65;5.03;;;7.10;99.90;;;;;;5059320;28;20036;-61
2023/04/30 03:32:40;;;;;;;9.88;4.70;;;7.10;99.90;;;;;;5067157;28;20045;-65
2023/04/30 03:35:07;;;;;;;9.20;5.28;;;7.00;99.90;;;;;;5062612;28;20032;-61
2023/04/30 03:37:32;;;;;;;10.10;4.75;;;7.00;99.90;;;;;;5057077;28;20384;-62
2023/04/30 03:39:58;;;;;;;12.63;5.35;;;7.00;99.90;;;;;;5061896;28;20036;-61
2023/04/30 03:42:23;;;;;;;10.63;5.07;;;7.00;99.90;;;;;;5063294;28;20037;-61
2023/04/30 03:44:49;;;;;;;8.85;4.43;;;7.00;99.90;;;;;;5072009;28;20067;-61
2023/04/30 03:47:15;;;;;;;9.85;4.50;;;7.00;99.90;;;;;;5075898;28;20036;-64
2023/04/30 03:49:40;;;;;;;8.55;4.35;;;6.90;99.90;;;;;;5068732;28;20126;-64
2023/04/30 03:52:06;;;;;;;14.20;4.30;;;6.90;99.90;;;;;;5069806;28;20041;-61
2023/04/30 03:54:32;;;;;;;11.10;4.75;;;6.90;99.90;;;;;;5062434;28;20051;-61
2023/04/30 03:56:59;;;;;;;10.00;5.03;;;6.90;99.90;;;;;;5064819;28;20529;-60
2023/04/30 03:59:24;;;;;;;13.88;5.50;;;6.90;99.90;;;;;;5061714;28;20510;-63
2023/04/30 04:01:50;;;;;;;10.93;4.97;;;6.90;99.90;;;;;;5067432;28;20040;-61
2023/04/30 04:04:16;;;;;;;9.65;4.90;;;6.90;99.90;;;;;;5078966;28;20031;-61
2023/04/30 04:06:42;;;;;;;8.63;4.75;;;6.90;99.90;;;;;;5070216;28;20028;-62
2023/04/30 04:09:07;;;;;;;10.23;4.80;;;6.90;99.90;;;;;;5073526;28;20033;-61
2023/04/30 04:11:33;;;;;;;14.13;5.22;;;6.90;99.90;;;;;;5058472;28;20048;-63
2023/04/30 04:13:59;;;;;;;10.63;5.50;;;6.90;99.90;;;;;;5068824;28;20048;-61
2023/04/30 04:16:25;;;;;;;9.65;5.30;;;6.90;99.90;;;;;;5067241;28;20054;-63
2023/04/30 04:18:51;;;;;;;8.88;5.25;;;6.80;99.90;;;;;;5069802;28;20167;-61
2023/04/30 04:21:17;;;;;;;12.85;6.05;;;6.90;99.90;;;;;;5062258;28;20039;-61
2023/04/30 04:23:43;;;;;;;11.63;5.30;;;6.90;99.90;;;;;;5069360;28;20119;-61
2023/04/30 04:26:09;;;;;;;8.90;5.43;;;6.90;99.90;;;;;;5069115;28;20115;-61
2023/04/30 04:28:35;;;;;;;8.82;5.22;;;6.90;99.90;;;;;;5069580;28;20044;-61
2023/04/30 04:31:02;;;;;;;10.18;5.10;;;6.80;99.90;;;;;;5069101;28;20039;-60
2023/04/30 04:33:27;;;;;;;8.43;5.43;;;6.80;99.90;;;;;;5070841;28;20471;-61
2023/04/30 04:35:53;;;;;;;9.95;5.03;;;6.80;99.90;;;;;;5065031;28;20052;-61
2023/04/30 04:38:19;;;;;;;8.93;4.70;;;6.70;99.90;;;;;;5062156;28;20282;-61
2023/04/30 04:40:55;;;;;;;8.50;4.43;;;6.80;99.90;;;;;;5063089;28;20149;-61
2023/04/30 04:43:21;;;;;;;8.15;4.57;;;6.80;99.90;;;;;;5065443;28;20036;-62
2023/04/30 04:45:46;;;;;;;11.68;5.43;;;6.80;99.90;;;;;;5068434;28;20052;-62
2023/04/30 04:48:13;;;;;;;10.95;5.07;;;6.80;99.90;;;;;;5068944;28;20039;-63
2023/04/30 04:50:38;;;;;;;9.02;5.07;;;6.80;99.90;;;;;;5062597;28;20083;-65
2023/04/30 04:53:04;;;;;;;9.77;5.43;;;6.80;99.90;;;;;;5071615;28;20079;-61
2023/04/30 04:55:30;;;;;;;9.25;5.47;;;6.80;99.90;;;;;;5065794;28;20492;-62
2023/04/30 04:57:55;;;;;;;10.43;5.60;;;6.80;99.90;;;;;;5071420;28;20052;-62
2023/04/30 05:00:22;;;;;;;9.00;5.65;;;6.90;99.90;;;;;;5071002;28;20395;-61
2023/04/30 05:02:48;;;;;;;12.82;6.22;;;6.90;99.90;;;;;;5064483;28;20048;-62
2023/04/30 05:05:14;;;;;;;10.25;5.82;;;6.90;99.90;;;;;;5043286;28;20044;-63
2023/04/30 05:07:40;;;;;;;11.02;5.60;;;6.90;99.90;;;;;;5055149;28;20037;-61
2023/04/30 05:10:06;;;;;;;12.65;6.03;;;6.90;99.90;;;;;;5064952;28;20406;-62
2023/04/30 05:12:32;;;;;;;11.48;6.15;;;7.00;99.90;;;;;;5064788;28;20612;-61
2023/04/30 05:14:58;;;;;;;10.48;6.47;;;7.00;99.90;;;;;;5072769;28;20061;-62
2023/04/30 05:17:23;;;;;;;11.90;6.47;;;7.00;99.90;;;;;;5065375;28;20103;-63
2023/04/30 05:19:49;;;;;;;11.13;6.60;;;7.00;99.90;;;;;;5063945;28;20064;-63
2023/04/30 05:22:15;;;;;;;11.95;6.80;;;7.00;99.90;;;;;;5067544;28;20474;-60
2023/04/30 05:24:41;;;;;;;12.00;6.43;;;7.00;99.90;;;;;;5066833;28;20032;-61
2023/04/30 05:27:08;;;;;;;13.23;6.90;;;7.10;99.90;;;;;;5064582;28;20506;-60
2023/04/30 05:29:33;;;;;;;13.52;6.70;;;7.10;99.90;;;;;;5071523;28;20123;-61
2023/04/30 05:32:00;;;;;;;12.98;7.25;;;7.10;99.90;;;;;;5078192;28;20513;-61
2023/04/30 05:34:25;;;;;;;15.27;7.60;;;7.10;99.90;;;;;;5068406;28;20037;-62
2023/04/30 05:36:51;;;;;;;14.13;7.05;;;7.10;99.90;;;;;;5057414;28;20042;-63
2023/04/30 05:39:16;;;;;;;13.45;6.60;;;7.10;99.90;;;;;;5071343;28;20084;-62
2023/04/30 05:41:42;;;;;;;11.52;7.13;;;7.20;99.90;;;;;;5065090;28;20044;-62
2023/04/30 05:44:08;;;;;;;11.57;6.90;;;7.20;99.90;;;;;;5067116;28;20550;-62
2023/04/30 05:46:34;;;;;;;14.27;7.20;;;7.20;99.90;;;;;;5067396;28;20060;-62
2023/04/30 05:49:00;;;;;;;14.10;7.25;;;7.20;99.90;;;;;;5069138;28;20072;-62
2023/04/30 05:51:26;;;;;;;14.32;6.95;;;7.20;99.90;;;;;;5062979;28;20218;-62
2023/04/30 05:53:52;;;;;;;13.48;6.43;;;7.20;99.90;;;;;;5071618;28;20522;-62
2023/04/30 05:56:18;;;;;;;12.13;7.30;;;7.20;99.90;;;;;;5067462;28;20056;-62
2023/04/30 05:58:43;;;;;;;16.15;7.05;;;7.20;99.90;;;;;;5071506;28;20040;-62
2023/04/30 06:01:10;;;;;;;9.80;6.78;;;7.20;99.90;;;;;;5071812;28;20094;-62
2023/04/30 06:03:36;;;;;;;14.27;7.13;;;7.20;99.90;;;;;;5068647;28;20106;-62
2023/04/30 06:06:02;;;;;;;10.77;6.85;;;7.20;99.90;;;;;;5066846;28;20064;-62
2023/04/30 06:08:28;;;;;;;15.57;7.15;;;7.20;99.90;;;;;;5067323;28;20067;-62
2023/04/30 06:10:54;;;;;;;11.88;6.88;;;7.20;99.90;;;;;;5062369;28;20032;-62
2023/04/30 06:13:20;;;;;;;12.20;6.88;;;7.30;99.90;;;;;;5066463;28;20043;-62
2023/04/30 06:15:45;;;;;;;13.48;7.32;;;7.30;99.90;;;;;;5063361;28;20048;-62
2023/04/30 06:18:15;;;;;;;13.48;6.85;;;7.40;99.90;;;;;;5064420;28;20075;-62
2023/04/30 06:20:40;;;;;;;12.07;6.50;;;7.40;99.90;;;;;;5067238;28;20131;-62
2023/04/30 06:23:06;;;;;;;15.65;6.45;;;7.50;99.90;;;;;;5062720;28;20538;-62
2023/04/30 06:25:31;;;;;;;13.73;6.43;;;7.50;99.90;;;;;;5055158;28;20043;-62
2023/04/30 06:27:57;;;;;;;13.20;6.05;;;7.60;99.90;;;;;;5065870;28;20036;-62
2023/04/30 06:30:22;;;;;;;9.70;5.78;;;7.60;99.90;;;;;;5066799;28;20048;-62
2023/04/30 06:32:48;;;;;;;19.95;5.95;;;7.70;99.90;;;;;;5063807;28;20041;-62
2023/04/30 06:35:14;;;;;;;13.93;5.65;;;7.70;99.90;;;;;;5056701;28;20040;-62
2023/04/30 06:37:39;;;;;;;13.43;5.82;;;7.80;99.90;;;;;;5059877;28;20037;-62
2023/04/30 06:40:06;;;;;;;12.23;5.40;;;7.80;99.90;;;;;;5056101;28;20271;-62
2023/04/30 06:42:35;;;;;;;17.27;5.68;;;7.80;99.90;;;;;;5065133;28;20029;-64
2023/04/30 06:45:01;;;;;;;10.82;5.40;;;7.90;99.90;;;;;;5054005;28;20037;-62
2023/04/30 06:47:33;;;;;;;13.77;4.75;;;8.00;99.90;;;;;;5053102;28;20044;-62
2023/04/30 06:49:59;;;;;;;10.67;4.23;;;8.00;99.90;;;;;;5060917;28;20040;-62
2023/04/30 06:52:25;;;;;;;12.63;4.75;;;8.00;99.90;;;;;;5053814;28;20581;-62
2023/04/30 06:54:51;;;;;;;11.77;4.60;;;8.10;99.90;;;;;;5053381;28;20058;-62
2023/04/30 06:57:16;;;;;;;12.15;4.25;;;8.20;99.90;;;;;;5038025;28;20123;-62
2023/04/30 06:59:43;;;;;;;16.02;4.18;;;8.20;99.90;;;;;;5051597;28;20117;-62
2023/04/30 07:02:08;;;;;;;13.88;4.47;;;8.20;99.90;;;;;;5054039;28;20047;-62
2023/04/30 07:04:34;;;;;;;11.60;4.22;;;8.20;99.90;;;;;;5057649;28;20036;-62
2023/04/30 07:07:01;;;;;;;15.57;5.15;;;8.30;99.90;;;;;;5062562;28;20036;-62
2023/04/30 07:09:27;;;;;;;15.43;4.40;;;8.30;99.90;;;;;;5047846;28;20057;-62
2023/04/30 07:11:53;;;;;;;13.18;4.15;;;8.40;99.90;;;;;;5053326;28;20048;-62
2023/04/30 07:14:20;;;;;;;11.82;4.00;;;8.40;99.90;;;;;;5053041;28;20037;-63
2023/04/30 07:16:45;;;;;;;14.88;4.07;;;8.40;99.90;;;;;;5054747;28;20083;-62
2023/04/30 07:19:11;;;;;;;8.60;3.78;;;8.50;99.90;;;;;;5068569;28;20051;-62
2023/04/30 07:21:37;;;;;;;12.07;3.65;;;8.50;99.90;;;;;;5058013;28;20115;-62
2023/04/30 07:24:02;;;;;;;12.52;4.13;;;8.50;99.90;;;;;;5035473;28;20068;-63
2023/04/30 07:26:28;;;;;;;10.57;4.00;;;8.60;99.90;;;;;;5051829;28;20121;-62
2023/04/30 07:28:54;;;;;;;14.05;4.80;;;8.60;99.90;;;;;;5061479;28;20044;-62
2023/04/30 07:31:19;;;;;;;12.68;4.07;;;8.60;99.90;;;;;;5063866;28;20214;-62
2023/04/30 07:33:45;;;;;;;11.02;4.38;;;8.70;99.90;;;;;;5062057;28;20068;-63
2023/04/30 07:36:11;;;;;;;11.23;4.13;;;8.70;99.90;;;;;;5065655;28;20129;-62
2023/04/30 07:38:36;;;;;;;8.32;3.97;;;8.80;99.90;;;;;;5064118;28;20111;-62
2023/04/30 07:41:02;;;;;;;15.25;4.22;;;8.80;99.90;;;;;;5051402;28;20044;-62
2023/04/30 07:43:28;;;;;;;13.88;4.53;;;8.80;99.90;;;;;;5061622;28;20040;-62
2023/04/30 07:45:54;;;;;;;12.48;4.30;;;8.90;99.90;;;;;;5063265;28;20441;-62
2023/04/30 07:48:20;;;;;;;11.65;4.60;;;8.90;99.90;;;;;;5058764;28;20048;-63
2023/04/30 07:50:47;;;;;;;14.10;5.07;;;9.00;99.90;;;;;;5068293;28;20048;-62
2023/04/30 07:53:13;;;;;;;16.13;5.38;;;9.00;99.90;;;;;;5058712;28;20044;-62
2023/04/30 07:55:38;;;;;;;17.02;5.03;;;9.10;99.90;;;;;;5062200;28;20091;-62
2023/04/30 07:58:04;;;;;;;11.80;4.82;;;9.20;99.90;;;;;;5065712;28;20459;-62
2023/04/30 08:00:30;;;;;;;12.98;5.70;;;9.30;99.90;;;;;;5065428;28;20098;-62
2023/04/30 08:02:56;;;;;;;12.75;4.97;;;9.30;99.90;;;;;;5066090;28;20370;-62
2023/04/30 08:05:22;;;;;;;12.88;4.72;;;9.40;99.90;;;;;;5060396;28;20056;-62
2023/04/30 08:07:47;;;;;;;12.43;5.05;;;9.50;99.90;;;;;;5058909;28;20037;-62
2023/04/30 08:10:13;;;;;;;13.23;4.82;;;9.50;99.90;;;;;;5062243;28;20037;-62
2023/04/30 08:12:39;;;;;;;14.02;4.47;;;9.60;99.90;;;;;;5067490;28;20093;-62
2023/04/30 08:15:06;;;;;;;13.13;4.70;;;9.70;99.90;;;;;;5062845;28;20118;-62
2023/04/30 08:17:33;;;;;;;11.70;4.63;;;9.80;99.90;;;;;;5065001;28;20059;-62
2023/04/30 08:20:00;;;;;;;10.50;4.22;;;9.80;99.90;;;;;;5062466;28;20274;-62
2023/04/30 08:22:25;;;;;;;12.07;4.72;;;9.90;99.90;;;;;;5056284;28;20036;-62
2023/04/30 08:24:51;;;;;;;10.88;4.22;;;10.00;99.90;;;;;;5059137;28;20494;-63
2023/04/30 08:27:16;;;;;;;10.73;3.88;;;10.00;99.90;;;;;;5055267;28;20036;-62
2023/04/30 08:29:42;;;;;;;12.07;4.07;;;10.20;99.90;;;;;;5060027;28;20056;-62
2023/04/30 08:32:08;;;;;;;12.45;4.55;;;10.40;99.90;;;;;;5058720;28;20086;-62
2023/04/30 08:34:33;;;;;;;8.82;3.63;;;10.50;99.90;;;;;;5060790;28;20059;-62
2023/04/30 08:37:00;;;;;;;10.07;4.05;;;10.80;99.90;;;;;;5067581;28;20072;-62
2023/04/30 08:39:26;;;;;;;9.50;3.53;;;11.00;99.90;;;;;;5056522;28;20037;-63
2023/04/30 08:41:55;;;;;;;11.32;3.90;;;11.30;99.90;;;;;;5063311;28;20499;-63
2023/04/30 08:44:26;;;;;;;9.23;3.55;;;11.60;99.90;;;;;;5063331;28;20036;-63
2023/04/30 08:46:59;;;;;;;13.55;4.60;;;11.90;99.90;;;;;;5056775;28;20491;-63
2023/04/30 08:49:25;;;;;;;9.18;4.40;;;12.20;99.90;;;;;;5063114;28;20052;-63
2023/04/30 08:51:51;;;;;;;9.05;3.70;;;12.50;99.90;;;;;;5068032;28;20037;-63
2023/04/30 08:54:17;;;;;;;12.52;3.75;;;12.70;99.90;;;;;;5062474;28;20044;-63
2023/04/30 08:56:46;;;;;;;7.85;3.88;;;12.90;99.90;;;;;;5051825;28;20127;-63
2023/04/30 08:59:12;;;;;;;10.63;3.92;;;13.10;99.90;;;;;;5057996;28;20044;-63
2023/04/30 09:01:38;;;;;;;9.63;3.80;;;13.20;99.90;;;;;;5058310;28;20094;-63
2023/04/30 09:04:05;;;;;;;13.10;4.20;;;13.30;99.90;;;;;;5064597;28;20036;-63
2023/04/30 09:06:30;;;;;;;9.00;3.35;;;13.40;99.90;;;;;;5065153;28;20045;-63
2023/04/30 09:09:06;;;;;;;10.55;3.78;;;13.70;99.90;;;;;;5070267;28;20119;-63
2023/04/30 09:11:32;;;;;;;9.50;3.88;;;13.90;99.90;;;;;;5070963;28;20102;-63
2023/04/30 09:13:59;;;;;;;10.05;4.18;;;14.20;99.90;;;;;;5061566;28;20045;-63
2023/04/30 09:16:26;;;;;;;10.90;3.67;;;14.20;99.90;;;;;;5063154;28;20024;-63
2023/04/30 09:18:52;;;;;;;10.40;3.65;;;14.30;99.90;;;;;;5064992;28;20448;-63
2023/04/30 09:21:32;;;;;;;9.77;3.60;;;14.50;99.90;;;;;;5070899;28;20036;-63
2023/04/30 09:24:04;;;;;;;8.80;3.40;;;14.60;99.90;;;;;;5066335;28;20389;-63
2023/04/30 09:26:35;;;;;;;10.73;3.67;;;14.70;99.90;;;;;;5061256;28;20498;-63
2023/04/30 09:29:06;;;;;;;8.05;3.60;;;14.90;99.90;;;;;;5069579;28;20059;-63
2023/04/30 09:31:33;;;;;;;9.30;3.28;;;15.10;99.90;;;;;;5062866;28;20044;-63
2023/04/30 09:33:59;;;;;;;7.38;3.30;;;15.20;99.90;;;;;;5058677;28;20034;-63
2023/04/30 09:36:25;;;;;;;5.53;2.90;;;15.40;99.90;;;;;;5062364;28;20090;-63
2023/04/30 09:38:50;;;;;;;9.57;3.70;;;15.70;99.90;;;;;;5077759;28;20432;-63
2023/04/30 09:41:27;;;;;;;7.72;3.35;;;15.90;99.90;;;;;;5062663;28;20033;-63
2023/04/30 09:43:56;;;;;;;6.22;3.40;;;16.10;99.90;;;;;;5068843;28;20043;-63
2023/04/30 09:46:30;;;;;;;14.38;3.90;;;16.20;99.90;;;;;;5063037;28;20119;-63
2023/04/30 09:48:58;;;;;;;9.57;3.50;;;16.30;99.90;;;;;;5070879;28;20433;-63
2023/04/30 09:51:25;;;;;;;8.43;3.10;;;16.30;99.90;;;;;;5063160;28;20036;-63
2023/04/30 09:53:52;;;;;;;8.80;2.83;;;16.40;99.90;;;;;;5064619;28;20048;-63
2023/04/30 09:56:22;;;;;;;9.02;3.20;;;16.60;99.90;;;;;;5064447;28;20086;-63
2023/04/30 09:58:53;;;;;;;8.13;2.92;;;16.70;99.90;;;;;;5070151;28;20482;-63
2023/04/30 10:01:25;;;;;;;8.15;2.92;;;16.80;99.90;;;;;;5061684;28;20041;-63
2023/04/30 10:03:51;;;;;;;11.10;3.63;;;16.90;99.90;;;;;;5071509;28;20085;-63
2023/04/30 10:06:19;;;;;;;6.45;2.95;;;17.10;99.90;;;;;;5067697;28;20032;-63
2023/04/30 10:08:52;;;;;;;7.72;3.47;;;17.20;99.90;;;;;;5066963;28;20043;-63
2023/04/30 10:11:20;;;;;;;10.18;3.20;;;17.30;99.90;;;;;;5061876;28;20072;-63
2023/04/30 10:13:53;;;;;;;9.75;3.38;;;17.50;99.90;;;;;;5054532;28;20164;-63
2023/04/30 10:16:39;;;;;;;7.85;3.85;;;17.60;99.90;;;;;;5062503;28;20409;-63
2023/04/30 10:19:24;;;;;;;7.97;3.20;;;17.70;99.90;;;;;;5057414;28;20051;-63
2023/04/30 10:21:50;;;;;;;7.45;3.55;;;17.80;99.90;;;;;;5063369;28;20036;-63
2023/04/30 10:24:18;;;;;;;8.45;3.22;;;17.80;99.90;;;;;;5063900;28;20506;-63
2023/04/30 10:26:45;;;;;;;9.07;2.97;;;17.90;99.90;;;;;;5059603;28;20120;-63
2023/04/30 10:29:12;;;;;;;8.88;3.63;;;18.00;99.90;;;;;;5068836;28;20079;-63
2023/04/30 10:31:40;;;;;;;9.63;3.53;;;18.20;99.90;;;;;;5056203;28;20032;-63
2023/04/30 10:34:30;;;;;;;8.52;3.28;;;18.30;99.90;;;;;;5060994;28;20142;-63
2023/04/30 10:37:02;;;;;;;9.43;3.60;;;18.50;98.60;;;;;;5063560;28;20032;-63
2023/04/30 10:39:28;;;;;;;8.35;3.10;;;18.50;99.20;;;;;;5069524;28;20410;-63
2023/04/30 10:42:04;;;;;;;7.88;2.88;;;18.50;99.10;;;;;;5063353;28;20036;-63
2023/04/30 10:44:34;;;;;;;6.93;2.95;;;18.60;98.20;;;;;;5078666;28;20151;-63
2023/04/30 10:47:03;;;;;;;7.47;2.70;;;18.70;98.50;;;;;;5056488;28;20041;-63
2023/04/30 10:49:29;;;;;;;6.78;3.30;;;18.70;98.50;;;;;;5062916;28;20127;-63
2023/04/30 10:51:59;;;;;;;7.63;2.75;;;18.70;98.30;;;;;;5060194;28;20064;-63
2023/04/30 10:54:35;;;;;;;10.63;3.05;;;18.90;98.30;;;;;;5065753;28;20047;-63
2023/04/30 10:57:21;;;;;;;8.90;3.22;;;19.00;97.50;;;;;;5057831;28;20505;-63
2023/04/30 10:59:49;;;;;;;6.47;3.10;;;18.90;96.60;;;;;;5062347;28;20048;-63
2023/04/30 11:02:18;;;;;;;7.00;2.83;;;18.80;97.30;;;;;;5068634;28;20041;-62
2023/04/30 11:05:17;;;;;;;6.65;3.17;;;19.00;97.90;;;;;;5064956;28;20037;-63
2023/04/30 11:07:49;;;;;;;8.50;2.92;;;19.00;97.00;;;;;;5051867;28;20491;-63
2023/04/30 11:10:19;;;;;;;7.82;3.03;;;19.10;97.60;;;;;;5058397;28;20081;-63
2023/04/30 11:12:49;;;;;;;7.50;3.33;;;19.10;97.70;;;;;;5068810;28;20043;-63
2023/04/30 11:15:18;;;;;;;8.25;3.47;;;19.20;97.40;;;;;;5054127;28;20048;-63
2023/04/30 11:17:45;;;;;;;9.20;3.20;;;19.30;97.60;;;;;;5060275;28;20407;-63
2023/04/30 11:20:19;;;;;;;9.88;3.22;;;19.30;97.20;;;;;;5055852;28;20175;-63
2023/04/30 11:22:44;;;;;;;13.07;3.67;;;19.40;96.90;;;;;;5062449;28;20486;-63
2023/04/30 11:25:12;;;;;;;6.45;2.85;;;19.60;98.90;;;;;;5059340;28;20045;-63
2023/04/30 11:27:41;;;;;;;7.05;2.85;;;19.70;98.00;;;;;;5065220;28;20044;-63
2023/04/30 11:30:17;;;;;;;6.93;3.08;;;19.80;96.70;;;;;;5058283;28;20036;-63
2023/04/30 11:32:46;;;;;;;6.88;2.88;;;19.90;95.50;;;;;;5076558;28;20052;-63
2023/04/30 11:35:12;;;;;;;5.60;3.08;;;19.90;96.00;;;;;;5067677;28;20123;-63
2023/04/30 11:37:43;;;;;;;6.55;2.92;;;19.80;96.30;;;;;;5060562;28;20553;-62
2023/04/30 11:40:11;;;;;;;7.07;3.17;;;19.80;96.10;;;;;;5059713;28;20033;-62
2023/04/30 11:42:38;;;;;;;6.10;3.00;;;19.90;96.60;;;;;;5061624;28;20037;-63
2023/04/30 11:45:09;;;;;;;7.65;3.10;;;19.80;96.10;;;;;;5064392;28;20041;-62
2023/04/30 11:47:39;;;;;;;7.00;2.80;;;19.80;95.40;;;;;;5062122;28;20033;-62
2023/04/30 11:50:06;;;;;;;8.27;3.08;;;19.70;95.60;;;;;;5062313;28;20040;-63
2023/04/30 11:52:31;;;;;;;6.55;3.13;;;19.80;96.20;;;;;;5063277;28;20041;-62
2023/04/30 11:54:59;;;;;;;6.63;2.70;;;19.80;96.00;;;;;;5058179;28;20040;-62
2023/04/30 11:57:24;;;;;;;4.93;2.47;;;19.90;95.80;;;;;;5061828;28;20048;-62
2023/04/30 11:59:50;;;;;;;8.20;3.80;;;20.00;95.90;;;;;;5060288;28;20037;-63
2023/04/30 12:02:16;;;;;;;6.28;3.13;;;20.10;95.80;;;;;;5055756;28;20037;-62
2023/04/30 12:04:45;;;;;;;5.60;2.80;;;20.10;95.60;;;;;;5053110;28;20040;-62
2023/04/30 12:07:11;;;;;;;6.68;2.90;;;20.00;95.60;;;;;;5062444;28;20045;-62
2023/04/30 12:09:53;;;;;;;7.80;2.90;;;20.20;96.00;;;;;;5058925;28;20091;-62
2023/04/30 12:12:26;;;;;;;5.03;2.80;;;20.40;95.10;;;;;;5052095;28;20029;-62
2023/04/30 12:14:52;;;;;;;7.07;3.10;;;20.60;93.90;;;;;;5063495;28;20072;-62
2023/04/30 12:17:34;;;;;;;6.95;3.10;;;20.60;94.80;;;;;;5059861;28;20110;-63
2023/04/30 12:20:00;;;;;;;8.68;2.90;;;20.60;94.10;;;;;;5058044;28;20048;-62
2023/04/30 12:22:26;;;;;;;6.50;3.13;;;20.70;94.70;;;;;;5056731;28;20438;-62
2023/04/30 12:24:52;;;;;;;8.30;3.13;;;20.80;94.60;;;;;;5058892;28;20101;-62
2023/04/30 12:27:18;;;;;;;11.57;4.13;;;20.80;94.20;;;;;;5078038;28;20040;-62
2023/04/30 12:29:46;;;;;;;19.63;13.45;;;20.80;93.80;;;;;;5065172;28;20409;-63
2023/04/30 12:32:15;;;;;;;25.02;20.98;;;20.90;93.70;;;;;;5058765;28;20037;-62
2023/04/30 12:34:41;;;;;;;19.90;16.02;;;20.90;94.10;;;;;;5055437;28;20052;-63
2023/04/30 12:37:06;;;;;;;11.02;6.80;;;21.00;94.00;;;;;;5051759;28;20427;-62
2023/04/30 12:39:32;;;;;;;7.70;4.68;;;21.30;93.40;;;;;;5056556;28;20039;-63
2023/04/30 12:41:59;;;;;;;5.60;2.97;;;21.30;93.20;;;;;;5070506;28;20036;-62
2023/04/30 12:44:26;;;;;;;6.50;2.80;;;21.40;92.90;;;;;;5061835;28;20032;-62
2023/04/30 12:46:59;;;;;;;6.13;2.60;;;21.30;92.70;;;;;;5075308;28;20514;-61
2023/04/30 12:49:45;;;;;;;5.03;2.47;;;21.40;92.50;;;;;;5053098;28;20201;-63